createdAt,value
2023-04-14T00:03:33.700Z,88.18
2023-04-14T00:08:36.915Z,88.14
2023-04-14T00:13:39.997Z,87.30
2023-04-14T00:18:43.039Z,87.34
2023-04-14T00:23:46.017Z,86.97
2023-04-14T00:28:48.970Z,86.70
2023-04-14T00:33:52.056Z,87.02
2023-04-14T00:38:55.174Z,85.19
2023-04-14T00:43:59.142Z,84.39
2023-04-14T00:49:02.927Z,83.79
2023-04-14T00:54:07.888Z,83.61
2023-04-14T00:59:11.756Z,82.84
2023-04-14T01:04:16.451Z,81.37
2023-04-14T01:09:19.800Z,81.43
2023-04-14T01:14:48.111Z,81.53
2023-04-14T01:20:23.026Z,81.05
2023-04-14T01:25:50.470Z,79.83
2023-04-14T01:31:25.689Z,79.46
2023-04-14T01:36:42.333Z,79.81
2023-04-14T01:41:52.565Z,80.04
2023-04-14T01:47:02.592Z,80.38
2023-04-14T01:52:11.505Z,80.40
2023-04-14T01:57:20.224Z,80.42
2023-04-14T02:02:24.360Z,79.86
2023-04-14T02:07:30.299Z,80.31
2023-04-14T02:12:34.141Z,80.10
2023-04-14T02:17:37.571Z,79.17
2023-04-14T02:22:40.549Z,78.84
2023-04-14T02:27:54.708Z,77.47
2023-04-14T02:33:12.253Z,75.89
2023-04-14T02:38:53.537Z,75.36
2023-04-14T02:43:59.418Z,74.86
2023-04-14T02:49:06.174Z,75.75
2023-04-14T02:54:10.180Z,74.06
2023-04-14T02:59:13.652Z,72.63
2023-04-14T03:04:18.687Z,71.34
2023-04-14T03:09:22.839Z,69.04
2023-04-14T03:14:27.519Z,67.95
2023-04-14T03:19:31.824Z,67.11
2023-04-14T03:24:36.720Z,68.00
2023-04-14T03:29:49.073Z,68.63
2023-04-14T03:34:57.027Z,68.96
2023-04-14T03:40:05.839Z,68.06
2023-04-14T03:45:10.028Z,68.90
2023-04-14T03:50:15.556Z,68.79
2023-04-14T03:55:19.704Z,66.30
2023-04-14T04:00:25.325Z,66.07
2023-04-14T04:05:29.221Z,66.54
2023-04-14T04:10:37.795Z,67.62
2023-04-14T04:15:42.197Z,68.70
2023-04-14T04:20:46.589Z,68.57
2023-04-14T04:25:50.247Z,69.38
2023-04-14T04:30:54.725Z,69.79
2023-04-14T04:35:58.275Z,71.08
2023-04-14T04:41:01.622Z,71.76
2023-04-14T04:46:44.611Z,71.74
2023-04-14T04:51:47.887Z,70.65
2023-04-14T04:56:50.970Z,69.35
2023-04-14T05:01:54.063Z,69.25
2023-04-14T05:06:57.491Z,68.10
2023-04-14T05:12:00.765Z,66.64
2023-04-14T05:17:04.011Z,66.25
2023-04-14T05:22:06.966Z,66.32
2023-04-14T05:27:14.171Z,66.09
2023-04-14T05:32:18.784Z,67.56
2023-04-14T05:37:22.550Z,67.93
2023-04-14T05:42:25.824Z,68.56
2023-04-14T05:47:29.010Z,68.99
2023-04-14T05:52:31.973Z,69.23
2023-04-14T05:57:35.281Z,69.93
2023-04-14T06:02:42.357Z,70.13
2023-04-14T06:07:47.025Z,71.27
2023-04-14T06:12:51.071Z,72.83
2023-04-14T06:17:54.418Z,72.81
2023-04-14T06:22:57.545Z,73.83
2023-04-14T06:28:03.870Z,72.61
2023-04-14T06:33:07.383Z,70.26
2023-04-14T06:38:10.530Z,68.29
2023-04-14T06:43:14.954Z,68.40
2023-04-14T06:48:17.943Z,68.22
2023-04-14T06:53:21.042Z,67.39
2023-04-14T06:58:24.128Z,64.85
2023-04-14T07:03:29.682Z,65.43
2023-04-14T07:08:33.135Z,63.97
2023-04-14T07:13:37.854Z,64.95
2023-04-14T07:18:40.932Z,65.31
2023-04-14T07:23:43.871Z,65.38
2023-04-14T07:28:47.228Z,64.47
2023-04-14T07:33:50.322Z,64.27
2023-04-14T07:38:53.543Z,63.78
2023-04-14T07:43:59.276Z,62.61
2023-04-14T07:49:02.524Z,62.63
2023-04-14T07:54:06.328Z,62.76
2023-04-14T07:59:09.350Z,62.24
2023-04-14T08:04:12.521Z,61.94
2023-04-14T08:09:15.765Z,61.88
2023-04-14T08:14:19.064Z,61.62
2023-04-14T08:19:22.161Z,62.02
2023-04-14T08:24:25.224Z,61.91
2023-04-14T08:29:28.690Z,62.98
2023-04-14T08:34:32.050Z,63.15
2023-04-14T08:39:35.075Z,63.93
2023-04-14T08:44:38.014Z,65.00
2023-04-14T08:49:46.580Z,66.60
2023-04-14T08:54:51.462Z,67.13
2023-04-14T08:59:57.588Z,69.19
2023-04-14T09:05:01.290Z,70.72
2023-04-14T09:10:05.135Z,72.88
2023-04-14T09:15:09.093Z,73.63
2023-04-14T09:20:34.613Z,75.68
2023-04-14T09:25:38.282Z,76.88
2023-04-14T09:30:43.281Z,78.97
2023-04-14T09:35:52.358Z,80.19
2023-04-14T09:40:57.069Z,81.01
2023-04-14T09:46:09.581Z,83.14
2023-04-14T09:51:14.089Z,85.15
2023-04-14T09:56:17.251Z,86.36
2023-04-14T10:01:21.417Z,87.46
2023-04-14T10:06:24.941Z,89.39
2023-04-14T10:11:33.073Z,90.96
2023-04-14T10:16:36.388Z,91.53
2023-04-14T10:21:39.778Z,92.49
2023-04-14T10:26:47.238Z,92.79
2023-04-14T10:31:54.763Z,93.35
2023-04-14T10:37:13.809Z,93.80
2023-04-14T10:42:16.761Z,94.17
2023-04-14T10:47:25.208Z,94.61
2023-04-14T10:52:28.387Z,95.08
2023-04-14T10:57:46.212Z,95.57
2023-04-14T11:03:13.674Z,96.34
2023-04-14T11:08:36.988Z,97.49
2023-04-14T11:13:41.602Z,98.17
2023-04-14T11:18:46.293Z,98.90
2023-04-14T11:23:49.821Z,100.00
2023-04-14T11:28:56.767Z,100.00
2023-04-14T11:34:00.688Z,100.00
2023-04-14T11:39:04.311Z,100.00
2023-04-14T11:44:07.816Z,100.00
2023-04-14T11:49:11.260Z,100.00
2023-04-14T11:54:14.268Z,100.00
2023-04-14T11:59:17.174Z,100.00
2023-04-14T12:04:21.377Z,100.00
2023-04-14T12:09:31.317Z,100.00
2023-04-14T12:14:34.831Z,100.00
2023-04-14T12:19:38.806Z,100.00
2023-04-14T12:24:43.795Z,100.00
2023-04-14T12:29:47.754Z,100.00
2023-04-14T12:34:58.512Z,100.00
2023-04-14T12:40:06.355Z,100.00
2023-04-14T12:45:10.668Z,100.00
2023-04-14T12:50:28.699Z,100.00
2023-04-14T12:55:32.478Z,100.00
2023-04-14T13:00:35.529Z,100.00
2023-04-14T13:05:38.457Z,100.00
2023-04-14T13:10:41.393Z,100.00
2023-04-14T13:16:13.978Z,100.00
2023-04-14T13:21:07.535Z,100.00
2023-04-14T13:26:10.895Z,100.00
2023-04-14T13:31:18.431Z,100.00
2023-04-14T13:36:22.414Z,100.00
2023-04-14T13:41:26.494Z,100.00
2023-04-14T13:46:36.233Z,100.00
2023-04-14T13:51:43.606Z,100.00
2023-04-14T13:56:46.703Z,100.00
2023-04-14T14:01:50.696Z,100.00
2023-04-14T14:06:53.812Z,100.00
2023-04-14T14:11:57.602Z,100.00
2023-04-14T14:17:00.610Z,100.00
2023-04-14T14:22:03.848Z,100.00
2023-04-14T14:27:06.834Z,100.00
2023-04-14T14:32:10.373Z,100.00
2023-04-14T14:37:18.274Z,100.00
2023-04-14T14:42:21.916Z,100.00
2023-04-14T14:47:25.087Z,100.00
2023-04-14T14:52:29.785Z,100.00
2023-04-14T14:57:32.817Z,100.00
2023-04-14T15:02:36.638Z,100.00
2023-04-14T15:07:39.923Z,100.00
2023-04-14T15:28:52.948Z,100.00
2023-04-14T15:34:01.708Z,100.00
2023-04-14T15:39:05.189Z,100.00
2023-04-14T15:44:08.167Z,100.00
2023-04-14T15:49:11.124Z,100.00
2023-04-14T15:54:14.131Z,100.00
2023-04-14T15:59:17.227Z,100.00
2023-04-14T16:04:20.334Z,100.00
2023-04-14T16:09:23.412Z,100.00
2023-04-14T16:14:35.175Z,100.00
2023-04-14T16:19:37.896Z,100.00
2023-04-14T16:24:40.983Z,100.00
2023-04-14T16:29:44.009Z,100.00
2023-04-14T16:34:47.042Z,100.00
2023-04-14T16:39:56.537Z,100.00
2023-04-14T16:44:59.452Z,100.00
2023-04-14T16:50:02.649Z,100.00
2023-04-14T16:55:06.321Z,100.00
2023-04-14T17:00:13.753Z,100.00
2023-04-14T17:05:16.986Z,100.00
2023-04-14T17:10:20.211Z,100.00
2023-04-14T17:15:23.747Z,100.00
2023-04-14T17:20:27.554Z,100.00
2023-04-14T17:25:31.714Z,100.00
2023-04-14T17:30:36.720Z,100.00
2023-04-14T17:35:40.332Z,100.00
2023-04-14T17:40:43.489Z,100.00
2023-04-14T17:45:50.428Z,100.00
2023-04-14T17:50:54.477Z,100.00
2023-04-14T17:55:57.935Z,100.00
2023-04-14T18:01:03.302Z,100.00
2023-04-14T18:06:06.960Z,100.00
2023-04-14T18:11:10.439Z,100.00
2023-04-14T18:16:13.463Z,100.00
2023-04-14T18:21:16.888Z,100.00
2023-04-14T18:31:25.894Z,100.00
2023-04-14T18:36:29.161Z,100.00
2023-04-14T18:41:32.688Z,100.00
2023-04-14T18:46:37.761Z,100.00
2023-04-14T18:51:41.340Z,100.00
2023-04-14T18:56:44.873Z,100.00
2023-04-14T19:01:47.936Z,100.00
2023-04-14T19:06:51.156Z,100.00
2023-04-14T19:11:54.126Z,100.00
2023-04-14T19:16:58.043Z,100.00
2023-04-14T19:22:01.134Z,100.00
2023-04-14T19:27:04.728Z,100.00
2023-04-14T19:32:07.925Z,100.00
2023-04-14T19:37:12.057Z,100.00
2023-04-14T19:42:14.952Z,100.00
2023-04-14T19:47:18.130Z,100.00
2023-04-14T19:52:22.256Z,100.00
2023-04-14T19:57:26.767Z,100.00
2023-04-14T20:02:30.347Z,100.00
2023-04-14T20:07:33.594Z,100.00
2023-04-14T20:12:36.601Z,100.00
2023-04-14T20:17:39.558Z,100.00
2023-04-14T20:22:42.711Z,100.00
2023-04-14T20:27:45.951Z,100.00
2023-04-14T20:32:49.026Z,100.00
2023-04-14T20:37:52.062Z,100.00
2023-04-14T20:42:55.588Z,100.00
2023-04-14T20:47:58.856Z,100.00
2023-04-14T20:53:01.845Z,100.00
2023-04-14T20:58:05.913Z,100.00
2023-04-14T21:03:09.851Z,100.00
2023-04-14T21:08:13.956Z,100.00
2023-04-14T21:15:27.033Z,100.00
2023-04-14T21:18:40.190Z,100.00
2023-04-14T21:23:43.125Z,100.00
2023-04-14T21:28:46.285Z,100.00
2023-04-14T21:33:49.037Z,100.00
2023-04-14T21:38:52.539Z,100.00
2023-04-14T21:43:55.544Z,100.00
2023-04-14T21:48:58.501Z,100.00
2023-04-14T21:54:01.482Z,100.00
2023-04-14T21:59:06.571Z,100.00
2023-04-14T22:04:11.395Z,100.00
2023-04-14T22:09:17.543Z,100.00
2023-04-14T22:14:20.537Z,100.00
2023-04-14T22:19:23.496Z,100.00
2023-04-14T22:24:26.509Z,100.00
2023-04-14T22:29:29.451Z,100.00
2023-04-14T22:34:32.296Z,100.00
2023-04-14T22:39:35.277Z,100.00
2023-04-14T22:44:38.581Z,100.00
2023-04-14T22:49:41.545Z,100.00
2023-04-14T22:54:44.609Z,100.00
2023-04-14T22:59:47.609Z,100.00
2023-04-14T23:04:50.832Z,100.00
2023-04-14T23:09:53.818Z,100.00
2023-04-14T23:14:56.797Z,100.00
2023-04-14T23:20:02.114Z,100.00
2023-04-14T23:25:06.224Z,100.00
2023-04-14T23:30:10.734Z,100.00
2023-04-14T23:35:13.987Z,100.00
2023-04-14T23:40:17.808Z,100.00
2023-04-14T23:45:21.137Z,100.00
2023-04-14T23:50:59.145Z,100.00
2023-04-14T23:55:49.490Z,100.00
